Time;durP1;ratioP1;P1;durP2;ratioP2;P2;SDS_P1;SDS_P2;PMS_P1;PMS_P2;Temp;Humidity;BMP_temperature;BMP_pressure;BME280_temperature;BME280_humidity;BME280_pressure;Samples;Min_cycle;Max_cycle;Signal;HPM_P1;HPM_P2
2022/04/17 00:01:43;;;;;;;8.80;5.55;;;;;;;-148.33;100.00;56587.81;5028209;28;20051;-59
2022/04/17 00:04:10;;;;;;;6.82;6.13;;;;;;;-148.33;100.00;56587.81;5028470;28;20025;-61
2022/04/17 00:06:36;;;;;;;6.07;5.47;;;;;;;-148.33;100.00;56587.81;5028947;28;20625;-61
2022/04/17 00:09:02;;;;;;;6.88;5.72;;;;;;;-148.33;100.00;56587.81;5028844;28;20025;-60
2022/04/17 00:11:27;;;;;;;7.55;6.15;;;;;;;-148.33;100.00;56587.81;5028138;28;20079;-61
2022/04/17 00:13:54;;;;;;;6.25;5.55;;;;;;;-148.33;100.00;56587.81;5027192;28;20033;-61
2022/04/17 00:16:20;;;;;;;9.00;5.88;;;;;;;-148.33;100.00;56587.81;5028741;28;20033;-61
2022/04/17 00:18:45;;;;;;;8.35;5.75;;;;;;;-148.33;100.00;56587.81;5027679;28;20029;-61
2022/04/17 00:21:10;;;;;;;5.55;4.85;;;;;;;-148.33;100.00;56587.81;5028325;28;20357;-60
2022/04/17 00:23:35;;;;;;;8.10;5.68;;;;;;;-148.33;100.00;56587.81;5028340;28;20040;-61
2022/04/17 00:26:01;;;;;;;6.85;5.30;;;;;;;-148.33;100.00;56587.81;5028323;28;20191;-60
2022/04/17 00:28:27;;;;;;;5.93;5.00;;;;;;;-148.33;100.00;56587.81;5027941;28;20032;-60
2022/04/17 00:30:52;;;;;;;6.32;4.60;;;;;;;-148.33;100.00;56587.81;5027847;28;20056;-61
2022/04/17 00:33:17;;;;;;;6.25;4.82;;;;;;;-148.33;100.00;56587.81;5028301;28;20077;-61
2022/04/17 00:35:45;;;;;;;7.18;5.35;;;;;;;-148.33;100.00;56587.81;5028117;28;20025;-59
2022/04/17 00:38:10;;;;;;;6.15;4.85;;;;;;;-148.33;100.00;56587.81;5028754;28;20030;-61
2022/04/17 00:40:36;;;;;;;5.07;4.57;;;;;;;-148.33;100.00;56587.81;5027980;28;20040;-60
2022/04/17 00:43:01;;;;;;;7.50;4.87;;;;;;;-148.33;100.00;56587.81;5028122;28;20033;-61
2022/04/17 00:45:26;;;;;;;6.32;4.95;;;;;;;-148.33;100.00;56587.81;5027958;28;20026;-61
2022/04/17 00:47:51;;;;;;;4.90;4.40;;;;;;;-148.33;100.00;56587.81;5028078;28;20520;-61
2022/04/17 00:50:18;;;;;;;7.97;4.80;;;;;;;-148.33;100.00;56587.81;5028182;28;20117;-60
2022/04/17 00:52:45;;;;;;;8.17;4.87;;;;;;;-148.33;100.00;56587.81;5027119;28;20053;-60
2022/04/17 00:55:12;;;;;;;7.70;4.35;;;;;;;-148.33;100.00;56587.81;5027951;28;20104;-61
2022/04/17 00:57:37;;;;;;;6.25;5.03;;;;;;;-148.33;100.00;56587.81;5028224;28;20458;-60
2022/04/17 01:00:05;;;;;;;6.15;4.68;;;;;;;-148.33;100.00;56587.81;5026735;28;20044;-60
2022/04/17 01:02:30;;;;;;;4.65;4.00;;;;;;;-148.33;100.00;56587.81;5028396;28;20025;-59
2022/04/17 01:04:56;;;;;;;5.80;4.30;;;;;;;-148.33;100.00;56587.81;5028400;28;20371;-61
2022/04/17 01:07:23;;;;;;;5.18;4.35;;;;;;;-148.33;100.00;56587.81;5027851;28;20033;-61
2022/04/17 01:09:50;;;;;;;4.83;4.33;;;;;;;-148.33;100.00;56587.81;5027845;28;20033;-61
2022/04/17 01:12:17;;;;;;;5.70;4.50;;;;;;;-148.33;100.00;56587.81;5027677;28;20030;-60
2022/04/17 01:14:43;;;;;;;5.30;4.45;;;;;;;-148.33;100.00;56587.81;5027874;28;20112;-60
2022/04/17 01:17:10;;;;;;;5.57;4.55;;;;;;;-148.33;100.00;56587.81;5030412;28;20095;-59
2022/04/17 01:19:37;;;;;;;4.87;4.30;;;;;;;-148.33;100.00;56587.81;5031550;28;20037;-59
2022/04/17 01:22:07;;;;;;;4.60;4.20;;;;;;;-148.33;100.00;56587.81;5030859;28;20044;-60
2022/04/17 01:27:17;;;;;;;6.40;4.63;;;;;;;-148.33;100.00;56587.81;5031989;28;20040;-58
2022/04/17 01:29:43;;;;;;;5.90;4.22;;;;;;;-148.33;100.00;56587.81;5029965;28;20398;-60
2022/04/17 01:32:09;;;;;;;5.43;4.77;;;;;;;-148.33;100.00;56587.81;5030858;28;20050;-60
2022/04/17 01:34:36;;;;;;;4.88;4.38;;;;;;;-148.33;100.00;56587.81;5030930;28;20036;-59
2022/04/17 01:37:02;;;;;;;6.30;4.23;;;;;;;-148.33;100.00;56587.81;5031090;28;20033;-60
2022/04/17 01:39:29;;;;;;;5.05;4.47;;;;;;;-148.33;100.00;56587.81;5031039;28;20033;-59
2022/04/17 01:41:55;;;;;;;4.97;4.47;;;;;;;-148.33;100.00;56587.81;5030515;28;20033;-60
2022/04/17 01:44:21;;;;;;;4.73;3.97;;;;;;;-148.33;100.00;56587.81;5031477;28;20041;-60
2022/04/17 01:46:47;;;;;;;5.13;4.63;;;;;;;-148.33;100.00;56587.81;5030801;28;20032;-60
2022/04/17 01:49:15;;;;;;;6.53;4.67;;;;;;;-148.33;100.00;56587.81;5031265;28;20504;-60
2022/04/17 01:51:41;;;;;;;5.23;4.60;;;;;;;-148.33;100.00;56587.81;5031290;28;20473;-60
2022/04/17 01:54:11;;;;;;;5.70;4.50;;;;;;;-148.33;100.00;56587.81;5031414;28;20054;-60
2022/04/17 01:56:38;;;;;;;5.53;4.73;;;;;;;-148.33;100.00;56587.81;5031370;28;20061;-60
2022/04/17 01:59:05;;;;;;;4.53;4.13;;;;;;;-148.33;100.00;56587.81;5030598;28;20071;-60
2022/04/17 02:01:31;;;;;;;5.57;4.80;;;;;;;-148.33;100.00;56587.81;5030723;28;20147;-60
2022/04/17 02:03:57;;;;;;;5.37;4.80;;;;;;;-148.33;100.00;56587.81;5031025;28;20391;-59
2022/04/17 02:06:22;;;;;;;5.00;4.50;;;;;;;-148.33;100.00;56587.81;5030554;28;20029;-60
2022/04/17 02:08:47;;;;;;;5.30;4.17;;;;;;;-148.33;100.00;56587.81;5030535;28;20030;-59
2022/04/17 02:11:12;;;;;;;6.00;4.90;;;;;;;-148.33;100.00;56587.81;5030645;28;20034;-58
2022/04/17 02:13:38;;;;;;;5.70;4.60;;;;;;;-148.33;100.00;56587.81;5030735;28;20026;-60
2022/04/17 02:16:04;;;;;;;7.43;4.63;;;;;;;-148.33;100.00;56587.81;5030433;28;20504;-60
2022/04/17 02:18:29;;;;;;;5.03;4.53;;;;;;;-148.33;100.00;56587.81;5029849;28;20030;-59
2022/04/17 02:20:55;;;;;;;5.73;4.37;;;;;;;-148.33;100.00;56587.81;5030573;28;20022;-60
2022/04/17 02:23:20;;;;;;;8.07;4.20;;;;;;;-148.33;100.00;56587.81;5030039;28;20083;-59
2022/04/17 02:25:46;;;;;;;6.33;4.90;;;;;;;-148.33;100.00;56587.81;5030447;28;20165;-59
2022/04/17 02:28:13;;;;;;;6.10;4.67;;;;;;;-148.33;100.00;56587.81;5029161;28;20022;-58
2022/04/17 02:30:39;;;;;;;5.73;4.93;;;;;;;-148.33;100.00;56587.81;5030504;28;20037;-59
2022/04/17 02:33:04;;;;;;;5.33;4.63;;;;;;;-148.33;100.00;56587.81;5030084;28;20519;-59
2022/04/17 02:35:30;;;;;;;4.83;4.43;;;;;;;-148.33;100.00;56587.81;5029789;28;20037;-58
2022/04/17 02:37:55;;;;;;;5.47;4.77;;;;;;;-148.33;100.00;56587.81;5030334;28;20034;-60
2022/04/17 02:40:20;;;;;;;5.40;4.50;;;;;;;-148.33;100.00;56587.81;5029964;28;20032;-60
2022/04/17 02:42:47;;;;;;;5.87;4.77;;;;;;;-148.33;100.00;56587.81;5029828;28;20061;-60
2022/04/17 02:45:12;;;;;;;7.37;4.97;;;;;;;-148.33;100.00;56587.81;5048625;28;20028;-59
2022/04/17 02:47:43;;;;;;;6.40;4.70;;;;;;;-148.33;100.00;56587.81;5049946;28;20017;-60
2022/04/17 02:50:10;;;;;;;6.55;5.68;;;;;;;-148.33;100.00;56587.81;5049304;28;20025;-59
2022/04/17 02:52:35;;;;;;;5.60;5.00;;;;;;;-148.33;100.00;56587.81;5049959;28;20139;-60
2022/04/17 02:55:00;;;;;;;5.83;4.60;;;;;;;-148.33;100.00;56587.81;5049358;28;20603;-60
2022/04/17 02:57:26;;;;;;;5.23;4.70;;;;;;;-148.33;100.00;56587.81;5049472;28;20025;-58
2022/04/17 02:59:51;;;;;;;7.73;5.20;;;;;;;-148.33;100.00;56587.81;5049011;28;20036;-60
2022/04/17 03:07:45;;;;;;;6.00;5.30;;;;;;;-148.33;100.00;56587.81;5049387;28;20044;-59
2022/04/17 03:10:11;;;;;;;6.87;5.30;;;;;;;-148.33;100.00;56587.81;5048478;28;20025;-58
2022/04/17 03:12:37;;;;;;;5.67;5.03;;;;;;;-148.33;100.00;56587.81;5049201;28;20086;-59
2022/04/17 03:15:03;;;;;;;6.20;5.03;;;;;;;-148.33;100.00;56587.81;5049414;28;20040;-60
2022/04/17 03:17:28;;;;;;;6.13;5.50;;;;;;;-148.33;100.00;56587.81;5049082;28;20388;-59
2022/04/17 03:19:54;;;;;;;5.57;5.07;;;;;;;-148.33;100.00;56587.81;5048565;28;20120;-60
2022/04/17 03:22:23;;;;;;;6.33;5.20;;;;;;;-148.33;100.00;56587.81;5049149;28;20021;-60
2022/04/17 03:24:48;;;;;;;6.27;5.13;;;;;;;-148.33;100.00;56587.81;5049517;28;20074;-60
2022/04/17 03:27:14;;;;;;;5.30;4.80;;;;;;;-148.33;100.00;56587.81;5048798;28;20021;-60
2022/04/17 03:29:39;;;;;;;7.63;5.13;;;;;;;-148.33;100.00;56587.81;5049483;28;20036;-59
2022/04/17 03:32:04;;;;;;;5.93;5.10;;;;;;;-148.33;100.00;56587.81;5048290;28;20404;-60
2022/04/17 03:34:30;;;;;;;5.60;5.10;;;;;;;-148.33;100.00;56587.81;5048810;28;20086;-60
2022/04/17 03:36:58;;;;;;;5.90;5.30;;;;;;;-148.33;100.00;56587.81;5048307;28;20158;-60
2022/04/17 03:39:23;;;;;;;6.20;5.20;;;;;;;-148.33;100.00;56587.81;5048413;28;20039;-60
2022/04/17 03:41:49;;;;;;;5.63;5.13;;;;;;;-148.33;100.00;56587.81;5047576;28;20469;-59
2022/04/17 03:44:14;;;;;;;6.40;5.70;;;;;;;-148.33;100.00;56587.81;5048255;28;20420;-59
2022/04/17 03:46:39;;;;;;;6.27;5.67;;;;;;;-148.33;100.00;56587.81;5049040;28;20103;-59
2022/04/17 03:49:04;;;;;;;6.47;5.80;;;;;;;-148.33;100.00;56587.81;5048911;28;20025;-59
2022/04/17 03:51:30;;;;;;;7.80;6.17;;;;;;;-148.33;100.00;56587.81;5049088;28;20060;-61
2022/04/17 03:53:55;;;;;;;7.13;6.43;;;;;;;-148.33;100.00;56587.81;5048862;28;20075;-60
2022/04/17 03:56:20;;;;;;;7.40;5.73;;;;;;;-148.33;100.00;56587.81;5047915;28;20021;-60
2022/04/17 03:58:46;;;;;;;8.43;5.53;;;;;;;-148.33;100.00;56587.81;5047388;28;20095;-60
2022/04/17 04:01:11;;;;;;;6.13;5.53;;;;;;;-148.33;100.00;56587.81;5048693;28;20583;-61
2022/04/17 04:03:38;;;;;;;5.77;5.13;;;;;;;-148.33;100.00;56587.81;5047953;28;20029;-59
2022/04/17 04:06:04;;;;;;;6.37;5.77;;;;;;;-148.33;100.00;56587.81;5048575;28;20025;-60
2022/04/17 04:08:29;;;;;;;6.17;5.40;;;;;;;-148.33;100.00;56587.81;5048459;28;20021;-58
2022/04/17 04:10:55;;;;;;;6.03;5.30;;;;;;;-148.33;100.00;56587.81;5048423;28;20082;-60
2022/04/17 04:13:20;;;;;;;7.17;5.23;;;;;;;-148.33;100.00;56587.81;5048349;28;20028;-60
2022/04/17 04:15:45;;;;;;;5.73;5.13;;;;;;;-148.33;100.00;56587.81;5048141;28;20580;-60
2022/04/17 04:18:11;;;;;;;6.33;5.27;;;;;;;-148.33;100.00;56587.81;5048161;28;20614;-59
2022/04/17 04:20:36;;;;;;;7.20;5.47;;;;;;;-148.33;100.00;56587.81;5048503;28;20025;-60
2022/04/17 04:23:01;;;;;;;8.27;5.77;;;;;;;-148.33;100.00;56587.81;5048124;28;20036;-58
2022/04/17 04:25:26;;;;;;;5.87;5.27;;;;;;;-148.33;100.00;56587.81;5048006;28;20095;-60
2022/04/17 04:30:36;;;;;;;6.00;5.10;;;;;;;-148.33;100.00;56587.81;5046224;28;20126;-59
2022/04/17 04:33:01;;;;;;;6.40;5.73;;;;;;;-148.33;100.00;56587.81;5045901;28;20686;-60
2022/04/17 04:35:26;;;;;;;7.40;5.50;;;;;;;-148.33;100.00;56587.81;5046967;28;20036;-60
2022/04/17 04:37:52;;;;;;;5.87;5.37;;;;;;;-148.33;100.00;56587.81;5045979;28;20090;-59
2022/04/17 04:40:18;;;;;;;7.07;5.83;;;;;;;-148.33;100.00;56587.81;5047201;28;20032;-60
2022/04/17 04:42:43;;;;;;;5.83;5.20;;;;;;;-148.33;100.00;56587.81;5048610;28;20052;-60
2022/04/17 04:47:53;;;;;;;7.40;5.47;;;;;;;-148.33;100.00;56587.81;5048041;28;20098;-60
2022/04/17 04:50:18;;;;;;;6.17;5.57;;;;;;;-148.33;100.00;56587.81;5049926;28;20033;-60
2022/04/17 04:52:43;;;;;;;7.53;6.03;;;;;;;-148.33;100.00;56587.81;5052096;28;20032;-60
2022/04/17 04:55:09;;;;;;;5.93;5.37;;;;;;;-148.33;100.00;56587.81;5052146;28;20070;-60
2022/04/17 04:57:37;;;;;;;6.27;5.60;;;;;;;-148.33;100.00;56587.81;5051786;28;20032;-61
2022/04/17 05:00:06;;;;;;;7.63;5.37;;;;;;;-148.33;100.00;56587.81;5052116;28;20040;-60
2022/04/17 05:02:31;;;;;;;7.53;5.60;;;;;;;-148.33;100.00;56587.81;5051600;28;20029;-59
2022/04/17 05:04:56;;;;;;;5.60;4.97;;;;;;;-148.33;100.00;56587.81;5051959;28;20028;-61
2022/04/17 05:07:22;;;;;;;6.43;5.23;;;;;;;-148.33;100.00;56587.81;5051154;28;20029;-59
2022/04/17 05:09:47;;;;;;;6.47;5.67;;;;;;;-148.33;100.00;56587.81;5051693;28;20035;-61
2022/04/17 05:12:12;;;;;;;7.60;6.10;;;;;;;-148.33;100.00;56587.81;5051532;28;20090;-61
2022/04/17 05:14:41;;;;;;;8.63;5.53;;;;;;;-148.33;100.00;56587.81;5051725;28;20048;-61
2022/04/17 05:17:06;;;;;;;6.00;5.17;;;;;;;-148.33;100.00;56587.81;5049706;28;20029;-61
2022/04/17 05:19:32;;;;;;;6.77;5.70;;;;;;;-148.33;100.00;56587.81;5050441;28;20043;-60
2022/04/17 05:21:58;;;;;;;5.57;4.90;;;;;;;-148.33;100.00;56587.81;5051529;28;20017;-61
2022/04/17 05:24:24;;;;;;;5.57;5.03;;;;;;;-148.33;100.00;56587.81;5051149;28;20032;-61
2022/04/17 05:26:50;;;;;;;6.40;5.80;;;;;;;-148.33;100.00;56587.81;5051525;28;20453;-60
2022/04/17 05:29:15;;;;;;;8.03;5.97;;;;;;;-148.33;100.00;56587.81;5051405;28;20017;-60
2022/04/17 05:31:41;;;;;;;7.27;5.67;;;;;;;-148.33;100.00;56587.81;5050583;28;20029;-58
2022/04/17 05:34:06;;;;;;;6.30;5.70;;;;;;;-148.33;100.00;56587.81;5051034;28;20029;-60
2022/04/17 05:36:31;;;;;;;7.90;5.73;;;;;;;-148.33;100.00;56587.81;5051340;28;20028;-60
2022/04/17 05:38:56;;;;;;;7.10;5.67;;;;;;;-148.33;100.00;56587.81;5050847;28;20614;-60
2022/04/17 05:41:26;;;;;;;5.97;5.40;;;;;;;-148.33;100.00;56587.81;5050803;28;20020;-59
2022/04/17 05:43:53;;;;;;;6.23;5.53;;;;;;;-148.33;100.00;56587.81;5051592;28;20021;-60
2022/04/17 05:46:19;;;;;;;8.37;6.70;;;;;;;-148.33;100.00;56587.81;5050951;28;20025;-61
2022/04/17 05:48:44;;;;;;;6.53;5.70;;;;;;;-148.33;100.00;56587.81;5051062;28;20430;-61
2022/04/17 05:51:09;;;;;;;6.93;5.50;;;;;;;-148.33;100.00;56587.81;5050680;28;20499;-60
2022/04/17 05:53:35;;;;;;;6.43;5.10;;;;;;;-148.33;100.00;56587.81;5049491;28;20033;-60
2022/04/17 05:56:00;;;;;;;6.23;5.63;;;;;;;-148.33;100.00;56587.81;5051028;28;20029;-59
2022/04/17 05:58:25;;;;;;;5.67;4.80;;;;;;;-148.33;100.00;56587.81;5050591;28;20100;-59
2022/04/17 06:00:50;;;;;;;6.00;5.00;;;;;;;-148.33;100.00;56587.81;5049951;28;20350;-59
2022/04/17 06:03:16;;;;;;;7.00;5.73;;;;;;;-148.33;100.00;56587.81;5050326;28;20423;-59
2022/04/17 06:05:42;;;;;;;5.90;5.30;;;;;;;-148.33;100.00;56587.81;5050840;28;20063;-57
2022/04/17 06:08:07;;;;;;;6.88;5.68;;;;;;;-148.33;100.00;56587.81;5050867;28;20055;-60
2022/04/17 06:10:33;;;;;;;7.50;5.57;;;;;;;-148.33;100.00;56587.81;5050981;28;20081;-60
2022/04/17 06:12:58;;;;;;;7.60;5.97;;;;;;;-148.33;100.00;56587.81;5050454;28;20025;-60
2022/04/17 06:15:23;;;;;;;6.03;5.37;;;;;;;-148.33;100.00;56587.81;5050483;28;20040;-59
2022/04/17 06:17:49;;;;;;;7.93;5.57;;;;;;;-148.33;100.00;56587.81;5049798;28;20029;-60
2022/04/17 06:20:15;;;;;;;10.25;6.22;;;;;;;-148.33;100.00;56587.81;5050489;28;20500;-59
2022/04/17 06:22:41;;;;;;;5.43;4.27;;;;;;;-148.33;100.00;56587.81;5050298;28;20025;-59
2022/04/17 06:25:09;;;;;;;6.97;4.85;;;;;;;-148.33;100.00;56587.81;5050168;28;20155;-60
2022/04/17 06:27:45;;;;;;;4.82;4.20;;;;;;;-148.33;100.00;56587.81;5050534;28;20040;-60
2022/04/17 06:30:13;;;;;;;6.43;4.13;;;;;;;-148.33;100.00;56587.81;5050293;28;20076;-60
2022/04/17 06:32:40;;;;;;;5.07;4.47;;;;;;;-148.33;100.00;56587.81;5050317;28;20106;-60
2022/04/17 06:35:09;;;;;;;6.10;3.80;;;;;;;-148.33;100.00;56587.81;5050170;28;20029;-61
2022/04/17 06:38:05;;;;;;;4.95;4.07;;;;;;;-148.33;100.00;56587.81;5049764;28;20068;-58
2022/04/17 06:40:33;;;;;;;4.00;3.60;;;;;;;-148.33;100.00;56587.81;5037124;28;20060;-60
2022/04/17 06:43:08;;;;;;;4.15;3.75;;;;;;;-148.33;100.00;56587.81;5049789;28;20469;-58
2022/04/17 06:45:36;;;;;;;5.30;3.92;;;;;;;-148.33;100.00;56587.81;5049424;28;20040;-59
2022/04/17 06:48:27;;;;;;;3.90;3.38;;;;;;;-148.33;100.00;56587.81;5049474;28;20025;-59
2022/04/17 06:50:54;;;;;;;4.30;3.90;;;;;;;-148.33;100.00;56587.81;5046832;28;20028;-60
2022/04/17 06:53:20;;;;;;;5.35;3.75;;;;;;;-148.33;100.00;56587.81;5049583;28;20111;-60
2022/04/17 06:55:47;;;;;;;3.75;3.45;;;;;;;-148.33;100.00;56587.81;5049203;28;20124;-59
2022/04/17 06:58:12;;;;;;;4.45;3.40;;;;;;;-148.33;100.00;56587.81;5049581;28;20028;-60
2022/04/17 07:00:38;;;;;;;5.38;3.63;;;;;;;-148.33;100.00;56587.81;5049299;28;20056;-60
2022/04/17 07:03:04;;;;;;;3.67;3.10;;;;;;;-148.33;100.00;56587.81;5049939;28;20705;-61
2022/04/17 07:05:29;;;;;;;3.40;3.10;;;;;;;-148.33;100.00;56587.81;5049643;28;20020;-60
2022/04/17 07:08:03;;;;;;;4.18;3.55;;;;;;;-148.33;100.00;56587.81;5048783;28;20108;-60
2022/04/17 07:10:29;;;;;;;3.80;3.40;;;;;;;-148.33;100.00;56587.81;5049323;28;20033;-61
2022/04/17 07:12:55;;;;;;;4.32;3.03;;;;;;;-148.33;100.00;56587.81;5049208;28;20187;-58
2022/04/17 07:15:21;;;;;;;4.88;3.00;;;;;;;-148.33;100.00;56587.81;5048888;28;20148;-59
2022/04/17 07:17:46;;;;;;;4.55;2.90;;;;;;;-148.33;100.00;56587.81;5049282;28;20024;-60
2022/04/17 07:20:12;;;;;;;4.75;2.88;;;;;;;-148.33;100.00;56587.81;5049135;28;20052;-60
2022/04/17 07:22:40;;;;;;;3.80;2.97;;;;;;;-148.33;100.00;56587.81;5049022;28;20029;-61
2022/04/17 07:25:07;;;;;;;3.13;2.60;;;;;;;-148.33;100.00;56587.81;5049488;28;20032;-60
2022/04/17 07:27:51;;;;;;;3.53;2.40;;;;;;;-148.33;100.00;56587.81;5049551;28;20108;-60
2022/04/17 07:30:23;;;;;;;4.78;2.90;;;;;;;-148.33;100.00;56587.81;5049231;28;20075;-61
2022/04/17 07:32:51;;;;;;;5.28;3.15;;;;;;;-148.33;100.00;56587.81;5048724;28;20052;-61
2022/04/17 07:35:18;;;;;;;4.22;2.60;;;;;;;-148.33;100.00;56587.81;5049144;28;20468;-61
2022/04/17 07:37:51;;;;;;;6.07;2.28;;;;;;;-148.33;100.00;56587.81;5048479;28;20032;-61
2022/04/17 07:40:20;;;;;;;2.58;2.35;;;;;;;-148.33;100.00;56587.81;5048846;28;20021;-61
2022/04/17 07:42:48;;;;;;;5.45;2.65;;;;;;;-148.33;100.00;56587.81;5048806;28;20052;-60
2022/04/17 07:45:15;;;;;;;2.45;2.10;;;;;;;-148.33;100.00;56587.81;5049046;28;20491;-62
2022/04/17 07:47:41;;;;;;;3.00;2.60;;;;;;;-148.33;100.00;56587.81;5049051;28;20096;-61
2022/04/17 07:50:07;;;;;;;4.70;2.38;;;;;;;-148.33;100.00;56587.81;5048699;28;20069;-60
2022/04/17 07:52:34;;;;;;;3.58;2.50;;;;;;;-148.33;100.00;56587.81;5048764;28;20024;-62
2022/04/17 07:55:00;;;;;;;3.10;2.53;;;;;;;-148.33;100.00;56587.81;5048877;28;20405;-63
2022/04/17 07:57:26;;;;;;;3.92;2.00;;;;;;;-148.33;100.00;56587.81;5048922;28;20513;-60
2022/04/17 07:59:55;;;;;;;3.05;2.28;;;;;;;-148.33;100.00;56587.81;5049195;28;20025;-60
2022/04/17 08:02:28;;;;;;;2.95;2.38;;;;;;;-148.33;100.00;56587.81;5048879;28;20504;-60
2022/04/17 08:04:54;;;;;;;2.97;2.55;;;;;;;-148.33;100.00;56587.81;5048478;28;20044;-60
2022/04/17 08:07:20;;;;;;;3.45;3.15;;;;;;;-148.33;100.00;56587.81;5048769;28;20036;-60
2022/04/17 08:09:46;;;;;;;4.82;2.10;;;;;;;-148.33;100.00;56587.81;5048419;28;20025;-60
2022/04/17 08:12:12;;;;;;;2.17;1.98;;;;;;;-148.33;100.00;56587.81;5047969;28;20029;-60
2022/04/17 08:14:37;;;;;;;4.03;2.40;;;;;;;-148.33;100.00;56587.81;5048318;28;20029;-60
2022/04/17 08:17:02;;;;;;;3.80;2.70;;;;;;;-148.33;100.00;56587.81;5048064;28;20029;-60
2022/04/17 08:19:29;;;;;;;3.80;2.42;;;;;;;-148.33;100.00;56587.81;5047659;28;20025;-59
2022/04/17 08:21:55;;;;;;;3.25;2.15;;;;;;;-148.33;100.00;56587.81;5048042;28;20025;-61
2022/04/17 08:24:21;;;;;;;4.63;2.10;;;;;;;-148.33;100.00;56587.81;5047833;28;20028;-61
2022/04/17 08:26:46;;;;;;;4.72;2.40;;;;;;;-148.33;100.00;56587.81;5048177;28;20082;-60
2022/04/17 08:29:11;;;;;;;2.80;2.60;;;;;;;-148.33;100.00;56587.81;5048487;28;20461;-61
2022/04/17 08:31:37;;;;;;;2.88;2.22;;;;;;;-148.33;100.00;56587.81;5047690;28;20029;-59
2022/04/17 08:34:02;;;;;;;2.35;2.15;;;;;;;-148.33;100.00;56587.81;5048197;28;20481;-61
2022/04/17 08:36:28;;;;;;;2.60;2.40;;;;;;;-148.33;100.00;56587.81;5048274;28;20021;-58
2022/04/17 08:38:53;;;;;;;4.72;2.70;;;;;;;-148.33;100.00;56587.81;5048152;28;20041;-58
2022/04/17 08:41:20;;;;;;;2.63;2.30;;;;;;;-148.33;100.00;56587.81;5047979;28;20032;-60
2022/04/17 08:43:46;;;;;;;2.50;2.30;;;;;;;-148.33;100.00;56587.81;5047678;28;20442;-60
2022/04/17 08:46:12;;;;;;;3.10;2.40;;;;;;;-148.33;100.00;56587.81;5048161;28;20112;-61
2022/04/17 08:48:37;;;;;;;2.75;1.77;;;;;;;-148.33;100.00;56587.81;5048220;28;20108;-60
2022/04/17 08:51:05;;;;;;;3.55;2.45;;;;;;;-148.33;100.00;56587.81;5048184;28;20108;-60
2022/04/17 08:53:34;;;;;;;2.95;2.40;;;;;;;-148.33;100.00;56587.81;5048038;28;20103;-61
2022/04/17 08:55:59;;;;;;;2.40;2.15;;;;;;;-148.33;100.00;56587.81;5048088;28;20033;-60
2022/04/17 08:58:24;;;;;;;2.55;2.15;;;;;;;-148.33;100.00;56587.81;5047149;28;20484;-61
2022/04/17 09:00:50;;;;;;;2.50;2.30;;;;;;;-148.33;100.00;56587.81;5047796;28;20025;-61
2022/04/17 09:03:15;;;;;;;3.42;2.25;;;;;;;-148.33;100.00;56587.81;5048271;28;20033;-61
2022/04/17 09:05:41;;;;;;;2.95;2.75;;;;;;;-148.33;100.00;56587.81;5047528;28;20404;-61
2022/04/17 09:08:18;;;;;;;3.42;2.40;;;;;;;-148.33;100.00;56587.81;5047646;28;20017;-61
2022/04/17 09:10:55;;;;;;;3.65;2.22;;;;;;;-148.33;100.00;56587.81;5047698;28;20066;-61
2022/04/17 09:13:33;;;;;;;4.68;2.20;;;;;;;-148.33;100.00;56587.81;5047816;28;20025;-61
2022/04/17 09:16:03;;;;;;;2.45;2.15;;;;;;;-148.33;100.00;56587.81;5047758;28;20401;-60
2022/04/17 09:18:31;;;;;;;5.10;2.47;;;;;;;-148.33;100.00;56587.81;5048133;28;20090;-61
2022/04/17 09:20:57;;;;;;;4.63;2.80;;;;;;;-148.33;100.00;56587.81;5047744;28;20079;-61
2022/04/17 09:23:38;;;;;;;2.53;2.33;;;;;;;-148.33;100.00;56587.81;5047776;28;20469;-61
2022/04/17 09:26:06;;;;;;;3.90;2.53;;;;;;;-148.33;100.00;56587.81;5047766;28;20483;-61
2022/04/17 09:28:35;;;;;;;3.03;2.10;;;;;;;-148.33;100.00;56587.81;5047749;28;20124;-62
2022/04/17 09:31:09;;;;;;;4.25;2.67;;;;;;;-148.33;100.00;56587.81;5047297;28;20017;-60
2022/04/17 09:33:39;;;;;;;3.30;2.20;;;;;;;-148.33;100.00;56587.81;5046879;28;20045;-61
2022/04/17 09:36:05;;;;;;;3.55;2.30;;;;;;;-148.33;100.00;56587.81;5047697;28;20047;-61
2022/04/17 09:38:32;;;;;;;2.97;2.50;;;;;;;-148.33;100.00;56587.81;5050973;28;20021;-61
2022/04/17 09:41:04;;;;;;;2.70;2.50;;;;;;;-148.33;100.00;56587.81;5051385;28;20350;-62
2022/04/17 09:43:36;;;;;;;3.63;2.35;;;;;;;-148.33;100.00;56587.81;5051365;28;20119;-62
2022/04/17 09:46:09;;;;;;;3.17;2.03;;;;;;;-148.33;100.00;56587.81;5051139;28;20487;-61
2022/04/17 09:48:43;;;;;;;2.47;1.73;;;;;;;-148.33;100.00;56587.81;5050482;28;20028;-62
2022/04/17 09:51:25;;;;;;;2.60;2.10;;;;;;;-148.33;100.00;56587.81;5051080;28;20103;-62
2022/04/17 09:54:08;;;;;;;2.55;2.15;;;;;;;-148.33;100.00;56587.81;5051138;28;20049;-63
2022/04/17 09:56:34;;;;;;;2.10;1.90;;;;;;;-148.33;100.00;56587.81;5049600;28;20437;-63
2022/04/17 09:59:00;;;;;;;2.67;2.30;;;;;;;-148.33;100.00;56587.81;5050224;28;20054;-61
2022/04/17 10:01:27;;;;;;;2.15;2.00;;;;;;;-148.33;100.00;56587.81;5050959;28;20029;-63
2022/04/17 10:03:54;;;;;;;5.05;2.63;;;;;;;-148.33;100.00;56587.81;5050587;28;20029;-62
2022/04/17 10:06:22;;;;;;;3.65;2.10;;;;;;;-148.33;100.00;56587.81;5050716;28;20032;-62
2022/04/17 10:08:47;;;;;;;3.13;1.83;;;;;;;-148.33;100.00;56587.81;5050954;28;20017;-63
2022/04/17 10:11:14;;;;;;;2.10;1.90;;;;;;;-148.33;100.00;56587.81;5050742;28;20029;-63
2022/04/17 10:13:40;;;;;;;2.03;1.88;;;;;;;-148.33;100.00;56587.81;5050883;28;20036;-63
2022/04/17 10:16:08;;;;;;;3.28;1.90;;;;;;;-148.33;100.00;56587.81;5050002;28;20029;-62
2022/04/17 10:18:38;;;;;;;3.00;1.90;;;;;;;-148.33;100.00;56587.81;5050722;28;20386;-63
2022/04/17 10:21:05;;;;;;;4.55;1.80;;;;;;;-148.33;100.00;56587.81;5050483;28;20111;-63
2022/04/17 10:23:32;;;;;;;2.95;1.60;;;;;;;-148.33;100.00;56587.81;5050259;28;20040;-62
2022/04/17 10:26:01;;;;;;;1.92;1.73;;;;;;;-148.33;100.00;56587.81;5049750;28;20064;-61
2022/04/17 10:28:33;;;;;;;2.88;1.92;;;;;;;-148.33;100.00;56587.81;5050557;28;20024;-62
2022/04/17 10:31:04;;;;;;;6.15;1.50;;;;;;;-148.33;100.00;56587.81;5049913;28;20025;-62
2022/04/17 10:34:05;;;;;;;2.17;1.50;;;;;;;-148.33;100.00;56587.81;5050620;28;20610;-62
2022/04/17 10:36:41;;;;;;;3.13;1.60;;;;;;;-148.33;100.00;56587.81;5050158;28;20025;-62
2022/04/17 10:39:18;;;;;;;2.28;1.77;;;;;;;-148.33;100.00;56587.81;5049846;28;20053;-62
2022/04/17 10:41:44;;;;;;;1.50;1.38;;;;;;;-148.33;100.00;56587.81;5049953;28;20033;-62
2022/04/17 10:44:11;;;;;;;2.70;1.50;;;;;;;-148.33;100.00;56587.81;5050121;28;20024;-63
2022/04/17 10:46:44;;;;;;;3.28;1.95;;;;;;;-148.33;100.00;56587.81;5049289;28;20053;-62
2022/04/17 10:49:09;;;;;;;2.70;1.67;;;;;;;-148.33;100.00;56587.81;5049545;28;20060;-62
2022/04/17 10:51:36;;;;;;;1.90;1.70;;;;;;;-148.33;100.00;56587.81;5049753;28;20114;-61
2022/04/17 10:54:10;;;;;;;1.88;1.45;;;;;;;-148.33;100.00;56587.81;5049959;28;20310;-61
2022/04/17 10:56:40;;;;;;;3.90;1.88;;;;;;;-148.33;100.00;56587.81;5049863;28;20025;-61
2022/04/17 10:59:19;;;;;;;2.45;1.85;;;;;;;-148.33;100.00;56587.81;5049440;28;20074;-62
2022/04/17 11:01:44;;;;;;;2.35;1.70;;;;;;;-148.33;100.00;56587.81;5049878;28;20025;-62
2022/04/17 11:04:27;;;;;;;2.90;1.90;;;;;;;-148.33;100.00;56587.81;5049505;28;20025;-62
2022/04/17 11:07:05;;;;;;;5.40;1.90;;;;;;;-148.33;100.00;56587.81;5049855;28;20448;-62
2022/04/17 11:09:36;;;;;;;2.90;1.50;;;;;;;-148.33;100.00;56587.81;5049990;28;20031;-62
2022/04/17 11:12:10;;;;;;;3.85;1.83;;;;;;;-148.33;100.00;56587.81;5049158;28;20033;-62
2022/04/17 11:14:38;;;;;;;2.05;1.40;;;;;;;-148.33;100.00;56587.81;5049403;28;20480;-63
2022/04/17 11:17:08;;;;;;;2.47;1.60;;;;;;;-148.33;100.00;56587.81;5049522;28;20025;-63
2022/04/17 11:19:38;;;;;;;2.95;1.70;;;;;;;-148.33;100.00;56587.81;5048930;28;20109;-62
2022/04/17 11:22:07;;;;;;;5.20;1.98;;;;;;;-148.33;100.00;56587.81;5049444;28;20017;-62
2022/04/17 11:24:53;;;;;;;4.00;1.90;;;;;;;-148.33;100.00;56587.81;5049503;28;20025;-61